Time;durP1;ratioP1;P1;durP2;ratioP2;P2;SDS_P1;SDS_P2;PMS_P1;PMS_P2;Temp;Humidity;BMP_temperature;BMP_pressure;BME280_temperature;BME280_humidity;BME280_pressure;Samples;Min_cycle;Max_cycle;Signal;HPM_P1;HPM_P2
2022/01/01 00:02:05;;;;;;;73.28;21.80;;;;;;;;;;4997397;28;20026;-93
2022/01/01 00:04:31;;;;;;;95.18;25.27;;;;;;;;;;4996258;28;20031;-92
2022/01/01 00:06:56;;;;;;;99.25;28.48;;;;;;;;;;4996638;28;20030;-92
2022/01/01 00:09:21;;;;;;;115.20;29.02;;;;;;;;;;5002672;28;20022;-92
2022/01/01 00:11:47;;;;;;;113.10;28.95;;;;;;;;;;4996613;28;20033;-93
2022/01/01 00:14:12;;;;;;;113.18;28.98;;;;;;;;;;4979244;28;20117;-92
2022/01/01 00:16:37;;;;;;;132.45;30.77;;;;;;;;;;4978472;28;20033;-93
2022/01/01 00:19:03;;;;;;;97.80;24.48;;;;;;;;;;4978890;28;20030;-92
2022/01/01 00:21:28;;;;;;;128.85;28.33;;;;;;;;;;5000282;28;20054;-92
2022/01/01 00:23:54;;;;;;;129.82;28.45;;;;;;;;;;4984095;28;20072;-94
2022/01/01 00:26:19;;;;;;;119.28;26.65;;;;;;;;;;4982057;28;20018;-93
2022/01/01 00:28:44;;;;;;;111.38;24.95;;;;;;;;;;4982315;28;20026;-93
2022/01/01 00:31:10;;;;;;;112.93;23.05;;;;;;;;;;4980423;28;20045;-93
2022/01/01 00:33:35;;;;;;;113.30;24.40;;;;;;;;;;4982909;28;20025;-93
2022/01/01 00:36:00;;;;;;;111.03;25.55;;;;;;;;;;4979929;28;20030;-93
2022/01/01 00:38:25;;;;;;;111.53;22.80;;;;;;;;;;4985739;28;20045;-93
2022/01/01 00:40:51;;;;;;;106.97;21.98;;;;;;;;;;4997943;28;20015;-93
2022/01/01 00:43:16;;;;;;;108.28;20.27;;;;;;;;;;4980052;28;20030;-92
2022/01/01 00:45:41;;;;;;;101.10;19.73;;;;;;;;;;4997515;28;20533;-92
2022/01/01 00:48:07;;;;;;;103.50;17.00;;;;;;;;;;4979534;28;20030;-93
2022/01/01 00:50:32;;;;;;;101.43;16.93;;;;;;;;;;4979968;28;20050;-92
2022/01/01 00:53:00;;;;;;;104.55;16.70;;;;;;;;;;4997515;28;20261;-92
2022/01/01 00:55:26;;;;;;;108.93;16.15;;;;;;;;;;4997103;28;20033;-93
2022/01/01 00:57:51;;;;;;;105.45;17.55;;;;;;;;;;4997444;28;20034;-93
2022/01/01 01:00:16;;;;;;;87.32;14.20;;;;;;;;;;4997055;28;20007;-93
2022/01/01 01:02:41;;;;;;;92.68;15.00;;;;;;;;;;4980923;28;20052;-93
2022/01/01 01:05:07;;;;;;;104.80;16.73;;;;;;;;;;4988102;28;20104;-93
2022/01/01 01:07:32;;;;;;;98.68;14.98;;;;;;;;;;4997117;28;20025;-93
2022/01/01 01:09:57;;;;;;;99.18;18.30;;;;;;;;;;4979793;28;20014;-92
2022/01/01 01:12:26;;;;;;;95.68;16.10;;;;;;;;;;4979446;28;20026;-93
2022/01/01 01:14:53;;;;;;;90.30;16.42;;;;;;;;;;4996418;28;20038;-93
2022/01/01 01:17:18;;;;;;;91.93;14.35;;;;;;;;;;4979604;28;20022;-93
2022/01/01 01:19:43;;;;;;;99.45;15.57;;;;;;;;;;4996032;28;20157;-92
2022/01/01 01:22:09;;;;;;;99.95;15.20;;;;;;;;;;4976649;28;20059;-92
2022/01/01 01:24:35;;;;;;;97.15;13.68;;;;;;;;;;4975675;28;20463;-93
2022/01/01 01:27:03;;;;;;;89.28;13.23;;;;;;;;;;4974757;28;20026;-92
2022/01/01 01:29:30;;;;;;;81.63;12.93;;;;;;;;;;4981329;28;20030;-92
2022/01/01 01:31:56;;;;;;;96.97;12.90;;;;;;;;;;4976094;28;20110;-92
2022/01/01 01:34:21;;;;;;;84.57;15.25;;;;;;;;;;4974222;28;20058;-92
2022/01/01 01:36:47;;;;;;;82.63;11.95;;;;;;;;;;4975333;28;20023;-92
2022/01/01 01:39:12;;;;;;;92.30;14.30;;;;;;;;;;4975199;28;20042;-92
2022/01/01 01:41:38;;;;;;;90.70;12.95;;;;;;;;;;4973726;28;20043;-92
2022/01/01 01:44:21;;;;;;;91.38;14.82;;;;;;;;;;4976597;28;20430;-92
2022/01/01 01:46:46;;;;;;;92.40;14.65;;;;;;;;;;4979767;28;20061;-92
2022/01/01 01:49:11;;;;;;;78.82;13.45;;;;;;;;;;4975938;28;20027;-92
2022/01/01 01:51:37;;;;;;;78.38;11.35;;;;;;;;;;4975581;28;20030;-92
2022/01/01 01:54:03;;;;;;;79.78;11.38;;;;;;;;;;4975643;28;20030;-92
2022/01/01 01:56:29;;;;;;;77.18;11.18;;;;;;;;;;4980083;28;20038;-92
2022/01/01 01:58:54;;;;;;;87.28;12.98;;;;;;;;;;4975472;28;20085;-92
2022/01/01 02:01:24;;;;;;;78.82;13.02;;;;;;;;;;4976437;28;20707;-92
2022/01/01 02:03:50;;;;;;;82.50;13.00;;;;;;;;;;4975254;28;20026;-92
2022/01/01 02:06:15;;;;;;;114.68;19.00;;;;;;;;;;4975700;28;20023;-92
2022/01/01 02:08:41;;;;;;;104.38;19.27;;;;;;;;;;4974989;28;20011;-92
2022/01/01 02:11:07;;;;;;;97.45;18.83;;;;;;;;;;4976001;28;20061;-92
2022/01/01 02:13:38;;;;;;;90.93;14.80;;;;;;;;;;4974698;28;20540;-92
2022/01/01 02:16:49;;;;;;;95.30;14.57;;;;;;;;;;4976188;28;20046;-92
2022/01/01 02:18:57;;;;;;;90.72;15.38;;;;;;;;;;4976438;28;20039;-92
2022/01/01 02:21:23;;;;;;;78.40;14.07;;;;;;;;;;4975627;28;20411;-92
2022/01/01 02:23:48;;;;;;;88.38;13.52;;;;;;;;;;4975675;28;20565;-92
2022/01/01 02:26:16;;;;;;;81.85;12.07;;;;;;;;;;4974923;28;20019;-92
2022/01/01 02:28:42;;;;;;;87.55;14.48;;;;;;;;;;4977154;28;20057;-92
2022/01/01 02:31:07;;;;;;;75.15;13.32;;;;;;;;;;4975342;28;20022;-91
2022/01/01 02:33:32;;;;;;;92.82;15.07;;;;;;;;;;4975040;28;20134;-92
2022/01/01 02:35:58;;;;;;;93.30;14.27;;;;;;;;;;4975658;28;20027;-91
2022/01/01 02:38:23;;;;;;;95.15;15.20;;;;;;;;;;4976070;28;20297;-92
2022/01/01 02:40:48;;;;;;;80.93;14.15;;;;;;;;;;4975078;28;20491;-92
2022/01/01 02:43:14;;;;;;;72.45;13.20;;;;;;;;;;4976006;28;20106;-92
2022/01/01 02:45:40;;;;;;;79.80;16.33;;;;;;;;;;4974773;28;20077;-91
2022/01/01 02:48:05;;;;;;;101.35;15.88;;;;;;;;;;4975971;28;20031;-92
2022/01/01 02:50:30;;;;;;;88.85;13.40;;;;;;;;;;4979771;28;20019;-92
2022/01/01 02:52:55;;;;;;;110.97;14.25;;;;;;;;;;4978127;28;20438;-92
2022/01/01 02:55:21;;;;;;;86.38;13.80;;;;;;;;;;4974775;28;20058;-92
2022/01/01 02:57:46;;;;;;;113.07;15.10;;;;;;;;;;4974397;28;20111;-92
2022/01/01 03:00:11;;;;;;;84.30;13.10;;;;;;;;;;4973962;28;20027;-92
2022/01/01 03:02:38;;;;;;;86.53;11.98;;;;;;;;;;4973454;28;20267;-93
2022/01/01 03:05:04;;;;;;;96.57;13.25;;;;;;;;;;4972987;28;20025;-92
2022/01/01 03:07:29;;;;;;;78.47;10.98;;;;;;;;;;4972064;28;20110;-92
2022/01/01 03:09:54;;;;;;;81.80;13.52;;;;;;;;;;4972200;28;20027;-92
2022/01/01 03:12:19;;;;;;;94.75;13.27;;;;;;;;;;4972045;28;20026;-92
2022/01/01 03:14:45;;;;;;;98.38;13.07;;;;;;;;;;4971747;28;20022;-92
2022/01/01 03:17:10;;;;;;;87.85;12.00;;;;;;;;;;4978559;28;20050;-92
2022/01/01 03:19:35;;;;;;;64.43;12.57;;;;;;;;;;4971622;28;20495;-92
2022/01/01 03:22:01;;;;;;;81.50;14.05;;;;;;;;;;4971367;28;20086;-93
2022/01/01 03:24:27;;;;;;;87.95;12.70;;;;;;;;;;4974418;28;20388;-92
2022/01/01 03:26:52;;;;;;;78.88;12.98;;;;;;;;;;4975570;28;20476;-93
2022/01/01 03:29:17;;;;;;;93.70;13.57;;;;;;;;;;4975853;28;20522;-92
2022/01/01 03:31:43;;;;;;;92.65;12.48;;;;;;;;;;4976720;28;20487;-93
2022/01/01 03:34:08;;;;;;;81.80;12.10;;;;;;;;;;4975332;28;20026;-92
2022/01/01 03:36:33;;;;;;;76.07;10.23;;;;;;;;;;4976745;28;20472;-93
2022/01/01 03:38:59;;;;;;;89.22;10.93;;;;;;;;;;4975868;28;20042;-92
2022/01/01 03:41:26;;;;;;;76.43;12.07;;;;;;;;;;4976949;28;20022;-92
2022/01/01 03:43:51;;;;;;;90.22;11.65;;;;;;;;;;4977631;28;20035;-92
2022/01/01 03:46:16;;;;;;;79.70;11.45;;;;;;;;;;4977075;28;20026;-92
2022/01/01 03:48:41;;;;;;;72.93;10.25;;;;;;;;;;4976034;28;20085;-92
2022/01/01 03:51:07;;;;;;;76.72;10.88;;;;;;;;;;4977591;28;20023;-92
2022/01/01 03:53:32;;;;;;;79.13;10.73;;;;;;;;;;4977016;28;20054;-92
2022/01/01 03:55:59;;;;;;;76.90;12.63;;;;;;;;;;4978046;28;20027;-92
2022/01/01 03:58:24;;;;;;;86.93;12.35;;;;;;;;;;4975144;28;20039;-92
2022/01/01 04:00:49;;;;;;;89.97;12.95;;;;;;;;;;4977323;28;20085;-92
2022/01/01 04:03:16;;;;;;;67.70;11.17;;;;;;;;;;4977290;28;20103;-92
2022/01/01 04:05:43;;;;;;;101.40;11.35;;;;;;;;;;4976583;28;20611;-92
2022/01/01 04:08:09;;;;;;;82.43;10.55;;;;;;;;;;4976747;28;20031;-92
2022/01/01 04:10:34;;;;;;;79.53;11.65;;;;;;;;;;4983321;28;20031;-92
2022/01/01 04:13:00;;;;;;;86.22;12.70;;;;;;;;;;4976007;28;20142;-92
2022/01/01 04:15:26;;;;;;;78.75;12.88;;;;;;;;;;4975451;28;20019;-92
2022/01/01 04:17:57;;;;;;;88.68;13.18;;;;;;;;;;4975354;28;20055;-92
2022/01/01 04:20:22;;;;;;;116.72;13.80;;;;;;;;;;4975763;28;20034;-92
2022/01/01 04:22:47;;;;;;;94.13;12.32;;;;;;;;;;4995610;28;20027;-92
2022/01/01 04:25:13;;;;;;;76.18;10.43;;;;;;;;;;4976848;28;20030;-92
2022/01/01 04:27:38;;;;;;;98.60;11.38;;;;;;;;;;4977548;28;20125;-92
2022/01/01 04:30:03;;;;;;;76.47;11.18;;;;;;;;;;4977606;28;20030;-92
2022/01/01 04:32:29;;;;;;;81.38;11.25;;;;;;;;;;4976665;28;20050;-92
2022/01/01 04:34:54;;;;;;;84.30;11.30;;;;;;;;;;4977877;28;20111;-91
2022/01/01 04:37:20;;;;;;;76.15;10.43;;;;;;;;;;4985358;28;20486;-92
2022/01/01 04:39:46;;;;;;;77.28;10.15;;;;;;;;;;4978955;28;20058;-92
2022/01/01 04:42:11;;;;;;;98.18;11.80;;;;;;;;;;4979563;28;20479;-91
2022/01/01 04:44:37;;;;;;;70.00;10.87;;;;;;;;;;4979213;28;20029;-92
2022/01/01 04:47:02;;;;;;;81.88;10.82;;;;;;;;;;4979037;28;20320;-92
2022/01/01 04:49:27;;;;;;;87.00;12.25;;;;;;;;;;4996789;28;20026;-91
2022/01/01 04:51:52;;;;;;;68.50;10.20;;;;;;;;;;4997170;28;20018;-91
2022/01/01 04:54:17;;;;;;;83.80;12.63;;;;;;;;;;4978951;28;20073;-91
2022/01/01 04:56:47;;;;;;;72.82;10.63;;;;;;;;;;4979351;28;20018;-91
2022/01/01 04:59:13;;;;;;;74.32;9.57;;;;;;;;;;5000171;28;20016;-91
2022/01/01 05:01:39;;;;;;;76.70;11.98;;;;;;;;;;4997092;28;20105;-91
2022/01/01 05:04:04;;;;;;;63.08;9.80;;;;;;;;;;4996397;28;20412;-92
2022/01/01 05:06:30;;;;;;;71.85;11.18;;;;;;;;;;4979107;28;20015;-92
2022/01/01 05:08:55;;;;;;;75.93;11.95;;;;;;;;;;4996743;28;20097;-92
2022/01/01 05:11:20;;;;;;;63.63;9.70;;;;;;;;;;4996600;28;20023;-92
2022/01/01 05:13:46;;;;;;;84.20;11.73;;;;;;;;;;4997025;28;20030;-91
2022/01/01 05:16:15;;;;;;;87.93;12.32;;;;;;;;;;4978872;28;20266;-92
2022/01/01 05:18:41;;;;;;;61.08;9.23;;;;;;;;;;4978893;28;20402;-92
2022/01/01 05:21:06;;;;;;;77.45;11.60;;;;;;;;;;4975096;28;20043;-92
2022/01/01 05:23:32;;;;;;;67.13;10.32;;;;;;;;;;4974550;28;20054;-91
2022/01/01 05:25:57;;;;;;;61.03;10.32;;;;;;;;;;4977719;28;20116;-92
2022/01/01 05:28:22;;;;;;;72.55;10.05;;;;;;;;;;4983616;28;20019;-91
2022/01/01 05:30:48;;;;;;;81.60;11.88;;;;;;;;;;4974840;28;20022;-91
2022/01/01 05:33:13;;;;;;;71.63;9.23;;;;;;;;;;4976222;28;20018;-91
2022/01/01 05:35:38;;;;;;;69.55;9.13;;;;;;;;;;4974606;28;20336;-91
2022/01/01 05:38:03;;;;;;;79.23;10.57;;;;;;;;;;4974883;28;20035;-91
2022/01/01 05:40:30;;;;;;;85.10;9.48;;;;;;;;;;4975898;28;20346;-91
2022/01/01 05:42:55;;;;;;;82.20;10.75;;;;;;;;;;4975516;28;20018;-91
2022/01/01 05:45:20;;;;;;;81.20;10.73;;;;;;;;;;4974537;28;20019;-91
2022/01/01 05:47:45;;;;;;;71.50;9.90;;;;;;;;;;4973947;28;20022;-91
2022/01/01 05:50:11;;;;;;;77.53;11.30;;;;;;;;;;4975827;28;20493;-91
2022/01/01 05:52:36;;;;;;;85.40;11.27;;;;;;;;;;4977934;28;20034;-91
2022/01/01 05:55:01;;;;;;;75.03;10.43;;;;;;;;;;4975544;28;20018;-91
2022/01/01 05:57:27;;;;;;;71.05;12.00;;;;;;;;;;4975428;28;20379;-91
2022/01/01 05:59:52;;;;;;;71.10;10.20;;;;;;;;;;4975621;28;20026;-91
2022/01/01 06:02:17;;;;;;;76.45;12.13;;;;;;;;;;4975261;28;20102;-92
2022/01/01 06:04:42;;;;;;;68.32;10.70;;;;;;;;;;4974183;28;20026;-92
2022/01/01 06:07:07;;;;;;;76.03;11.18;;;;;;;;;;4975507;28;20045;-92
2022/01/01 06:09:33;;;;;;;75.70;12.53;;;;;;;;;;4975532;28;20027;-92
2022/01/01 06:11:58;;;;;;;74.25;9.93;;;;;;;;;;4975882;28;20262;-91
2022/01/01 06:14:23;;;;;;;75.82;10.27;;;;;;;;;;4974686;28;20078;-91
2022/01/01 06:16:48;;;;;;;77.05;10.75;;;;;;;;;;4980847;28;20050;-91
2022/01/01 06:19:14;;;;;;;71.38;13.30;;;;;;;;;;4973811;28;20023;-91
2022/01/01 06:21:39;;;;;;;54.80;10.68;;;;;;;;;;4932801;28;1202257;-91
2022/01/01 06:24:04;;;;;;;66.72;10.02;;;;;;;;;;4975065;28;20057;-91
2022/01/01 06:26:30;;;;;;;90.38;13.40;;;;;;;;;;4974279;28;20043;-91
2022/01/01 06:28:55;;;;;;;81.00;11.32;;;;;;;;;;4974851;28;20117;-91
2022/01/01 06:31:20;;;;;;;72.63;10.98;;;;;;;;;;4973435;28;20046;-91
2022/01/01 06:33:45;;;;;;;67.33;11.77;;;;;;;;;;4974118;28;20391;-92
2022/01/01 06:36:12;;;;;;;95.40;14.35;;;;;;;;;;4971979;28;20274;-91
2022/01/01 06:38:39;;;;;;;57.22;10.05;;;;;;;;;;4974231;28;20034;-91
2022/01/01 06:41:04;;;;;;;80.03;11.70;;;;;;;;;;4976991;28;20022;-91
2022/01/01 06:43:29;;;;;;;72.53;11.90;;;;;;;;;;4972152;28;20023;-91
2022/01/01 06:45:54;;;;;;;65.63;12.25;;;;;;;;;;4973151;28;20313;-91
2022/01/01 06:48:20;;;;;;;69.88;13.18;;;;;;;;;;4974660;28;20022;-91
2022/01/01 06:50:45;;;;;;;70.90;11.63;;;;;;;;;;4972424;28;20027;-91
2022/01/01 06:53:11;;;;;;;78.93;12.90;;;;;;;;;;4972297;28;20027;-91
2022/01/01 06:55:36;;;;;;;70.60;12.18;;;;;;;;;;4972503;28;20278;-91
2022/01/01 06:58:01;;;;;;;80.00;11.73;;;;;;;;;;4974047;28;20074;-91
2022/01/01 07:00:26;;;;;;;62.42;10.15;;;;;;;;;;4977246;28;20262;-92
2022/01/01 07:02:52;;;;;;;65.28;9.77;;;;;;;;;;4978747;28;20052;-91
2022/01/01 07:05:17;;;;;;;74.63;12.70;;;;;;;;;;4975951;28;20137;-91
2022/01/01 07:07:42;;;;;;;84.82;13.80;;;;;;;;;;4975757;28;20026;-92
2022/01/01 07:10:09;;;;;;;71.45;13.85;;;;;;;;;;4981274;28;20033;-91
2022/01/01 07:12:35;;;;;;;65.18;12.32;;;;;;;;;;4977418;28;20482;-91
2022/01/01 07:15:00;;;;;;;70.95;12.45;;;;;;;;;;4976427;28;20491;-91
2022/01/01 07:17:25;;;;;;;67.35;13.48;;;;;;;;;;4975361;28;20033;-91
2022/01/01 07:19:51;;;;;;;74.05;15.30;;;;;;;;;;4975350;28;20041;-91
2022/01/01 07:22:16;;;;;;;89.13;16.55;;;;;;;;;;4992332;28;20042;-91
2022/01/01 07:24:42;;;;;;;68.18;12.55;;;;;;;;;;4978295;28;20023;-91
2022/01/01 07:27:07;;;;;;;65.72;13.57;;;;;;;;;;4978901;28;20503;-91
2022/01/01 07:29:32;;;;;;;71.53;14.13;;;;;;;;;;4998541;28;20165;-91
2022/01/01 07:31:57;;;;;;;85.32;14.98;;;;;;;;;;4997062;28;20057;-91
2022/01/01 07:34:23;;;;;;;88.22;15.88;;;;;;;;;;4982799;28;20076;-90
2022/01/01 07:36:49;;;;;;;82.90;15.98;;;;;;;;;;4997909;28;20033;-91
2022/01/01 07:39:14;;;;;;;80.30;16.50;;;;;;;;;;4997622;28;20046;-91
2022/01/01 07:41:39;;;;;;;75.63;14.77;;;;;;;;;;4981094;28;20041;-91
2022/01/01 07:44:05;;;;;;;80.20;12.85;;;;;;;;;;4981019;28;20019;-91
2022/01/01 07:46:30;;;;;;;73.93;14.13;;;;;;;;;;4981515;28;20022;-91
2022/01/01 07:48:55;;;;;;;72.47;14.13;;;;;;;;;;4980795;28;20018;-91
2022/01/01 07:51:20;;;;;;;72.18;12.80;;;;;;;;;;4998319;28;20343;-91
2022/01/01 07:53:46;;;;;;;73.68;13.13;;;;;;;;;;4981458;28;20019;-91
2022/01/01 07:56:11;;;;;;;57.80;12.13;;;;;;;;;;4998412;28;20033;-91
2022/01/01 07:58:36;;;;;;;67.97;12.57;;;;;;;;;;4998467;28;20292;-91
2022/01/01 08:01:01;;;;;;;68.60;12.93;;;;;;;;;;4998788;28;20662;-91
2022/01/01 08:03:26;;;;;;;82.00;11.97;;;;;;;;;;5001115;28;20414;-92
2022/01/01 08:05:52;;;;;;;68.13;10.95;;;;;;;;;;4981448;28;20277;-92
2022/01/01 08:08:17;;;;;;;74.43;14.30;;;;;;;;;;4979927;28;20069;-91
2022/01/01 08:10:42;;;;;;;71.25;13.23;;;;;;;;;;4979375;28;20094;-91
2022/01/01 08:13:09;;;;;;;69.53;13.70;;;;;;;;;;4980585;28;20120;-92
2022/01/01 08:15:34;;;;;;;76.53;14.38;;;;;;;;;;4980184;28;20434;-92
2022/01/01 08:17:59;;;;;;;63.88;11.73;;;;;;;;;;4980783;28;20030;-91
2022/01/01 08:20:25;;;;;;;67.18;13.07;;;;;;;;;;4980002;28;20053;-91
2022/01/01 08:22:50;;;;;;;70.65;12.82;;;;;;;;;;4980503;28;20034;-92
2022/01/01 08:25:16;;;;;;;59.03;11.43;;;;;;;;;;4997216;28;20433;-91
2022/01/01 08:27:41;;;;;;;55.22;11.55;;;;;;;;;;4979749;28;20277;-92
2022/01/01 08:30:06;;;;;;;75.82;11.50;;;;;;;;;;5000643;28;20046;-91
2022/01/01 08:32:32;;;;;;;77.68;11.90;;;;;;;;;;4980233;28;20062;-91
2022/01/01 08:34:57;;;;;;;78.78;12.45;;;;;;;;;;4980934;28;20033;-92
2022/01/01 08:37:22;;;;;;;79.45;12.40;;;;;;;;;;4996578;28;20093;-91
2022/01/01 08:39:48;;;;;;;58.03;10.23;;;;;;;;;;4977951;28;20033;-91
2022/01/01 08:42:13;;;;;;;55.40;10.25;;;;;;;;;;4977696;28;20728;-91
2022/01/01 08:44:38;;;;;;;53.58;12.00;;;;;;;;;;4996006;28;20035;-91
2022/01/01 08:47:03;;;;;;;66.63;13.25;;;;;;;;;;4994834;28;20084;-92
2022/01/01 08:49:29;;;;;;;65.93;12.95;;;;;;;;;;4995226;28;20030;-91
2022/01/01 08:51:57;;;;;;;63.35;11.38;;;;;;;;;;4977891;28;20094;-91
2022/01/01 08:54:22;;;;;;;87.25;13.95;;;;;;;;;;4992793;28;20033;-91
2022/01/01 08:56:48;;;;;;;70.27;13.07;;;;;;;;;;4976697;28;20022;-92
2022/01/01 08:59:13;;;;;;;74.57;14.10;;;;;;;;;;4976829;28;20979;-91
2022/01/01 09:01:38;;;;;;;73.10;12.13;;;;;;;;;;4993899;28;20300;-91
2022/01/01 09:04:04;;;;;;;69.18;13.85;;;;;;;;;;4994465;28;20284;-91
2022/01/01 09:06:29;;;;;;;72.32;13.30;;;;;;;;;;4978401;28;20030;-91
2022/01/01 09:08:55;;;;;;;74.10;14.93;;;;;;;;;;4976965;28;20022;-92
2022/01/01 09:11:20;;;;;;;75.30;14.75;;;;;;;;;;4995446;28;20026;-91
2022/01/01 09:13:45;;;;;;;90.53;16.08;;;;;;;;;;4994414;28;20145;-92
2022/01/01 09:16:11;;;;;;;69.25;14.95;;;;;;;;;;4976770;28;20022;-92
2022/01/01 09:18:37;;;;;;;79.68;16.38;;;;;;;;;;4981509;28;20141;-92
2022/01/01 09:21:02;;;;;;;74.78;17.10;;;;;;;;;;4972081;28;20102;-92
2022/01/01 09:23:27;;;;;;;78.78;17.70;;;;;;;;;;4974908;28;20066;-91
2022/01/01 09:25:53;;;;;;;72.53;18.23;;;;;;;;;;4973394;28;20023;-92
2022/01/01 09:28:18;;;;;;;87.67;20.47;;;;;;;;;;4973041;28;20018;-92
2022/01/01 09:30:43;;;;;;;84.57;20.25;;;;;;;;;;4975666;28;20332;-92
2022/01/01 09:33:10;;;;;;;74.65;19.90;;;;;;;;;;4973871;28;20399;-91
2022/01/01 09:35:35;;;;;;;100.13;24.67;;;;;;;;;;4974883;28;20019;-91
2022/01/01 09:38:00;;;;;;;96.28;22.55;;;;;;;;;;4976347;28;20097;-92
2022/01/01 09:40:26;;;;;;;90.50;23.13;;;;;;;;;;4977593;28;20023;-92
2022/01/01 09:42:52;;;;;;;97.88;21.33;;;;;;;;;;4978465;28;20022;-92
2022/01/01 09:45:18;;;;;;;91.78;24.08;;;;;;;;;;4976312;28;20062;-92
2022/01/01 09:47:43;;;;;;;76.00;20.88;;;;;;;;;;4979381;28;20031;-92
2022/01/01 09:50:09;;;;;;;61.30;19.48;;;;;;;;;;4979300;28;20384;-92
2022/01/01 09:52:34;;;;;;;74.43;21.88;;;;;;;;;;4976249;28;20023;-92
2022/01/01 09:54:59;;;;;;;68.13;20.92;;;;;;;;;;4975559;28;20031;-92
2022/01/01 09:57:24;;;;;;;77.30;21.65;;;;;;;;;;4975898;28;20015;-92
2022/01/01 09:59:50;;;;;;;73.73;21.50;;;;;;;;;;4975433;28;20037;-92
2022/01/01 10:02:15;;;;;;;73.13;21.52;;;;;;;;;;4975592;28;20270;-92
2022/01/01 10:04:52;;;;;;;64.97;20.80;;;;;;;;;;4975657;28;20018;-92
2022/01/01 10:07:18;;;;;;;65.10;20.15;;;;;;;;;;4976118;28;20366;-92
2022/01/01 10:09:43;;;;;;;66.65;19.17;;;;;;;;;;4977409;28;20062;-92
2022/01/01 10:12:10;;;;;;;61.90;19.75;;;;;;;;;;4975941;28;20805;-92
2022/01/01 10:14:36;;;;;;;60.25;20.50;;;;;;;;;;4976968;28;20066;-93
2022/01/01 10:17:07;;;;;;;74.32;21.45;;;;;;;;;;4981930;28;20113;-92
2022/01/01 10:19:32;;;;;;;64.53;19.88;;;;;;;;;;4977875;28;20026;-92
2022/01/01 10:22:02;;;;;;;79.25;20.77;;;;;;;;;;4975388;28;20055;-92
2022/01/01 10:27:42;;;;;;;63.28;22.27;;;;;;;;;;4974772;28;20069;-92
2022/01/01 10:29:56;;;;;;;49.88;18.15;;;;;;;;;;4976061;28;20114;-92
2022/01/01 10:32:22;;;;;;;57.20;21.30;;;;;;;;;;4974426;28;20066;-93
2022/01/01 10:34:47;;;;;;;54.72;20.65;;;;;;;;;;4974269;28;20023;-93
2022/01/01 10:37:13;;;;;;;49.97;17.55;;;;;;;;;;4976208;28;20094;-92
2022/01/01 10:39:48;;;;;;;46.65;17.85;;;;;;;;;;4974792;28;20913;-92
2022/01/01 10:42:14;;;;;;;53.78;17.92;;;;;;;;;;4977499;28;20015;-93
2022/01/01 10:44:39;;;;;;;48.22;17.63;;;;;;;;;;4974648;28;20169;-93
2022/01/01 10:47:16;;;;;;;47.00;18.40;;;;;;;;;;4980522;28;20430;-92
2022/01/01 10:52:13;;;;;;;40.95;16.85;;;;;;;;;;4976097;28;20037;-93
2022/01/01 10:54:46;;;;;;;44.40;16.17;;;;;;;;;;4975350;28;20019;-92
2022/01/01 10:57:11;;;;;;;44.88;18.02;;;;;;;;;;4974504;28;20538;-92
2022/01/01 10:59:37;;;;;;;43.05;17.42;;;;;;;;;;4979137;28;20065;-92
2022/01/01 11:02:05;;;;;;;38.75;15.82;;;;;;;;;;4976101;28;20023;-92
2022/01/01 11:04:32;;;;;;;31.02;14.95;;;;;;;;;;4974011;28;20077;-91
2022/01/01 11:06:57;;;;;;;30.63;15.43;;;;;;;;;;4979092;28;20058;-90
2022/01/01 11:09:22;;;;;;;39.23;16.23;;;;;;;;;;4975286;28;20058;-93
2022/01/01 11:11:48;;;;;;;33.65;15.68;;;;;;;;;;4972504;28;20349;-93
2022/01/01 11:14:14;;;;;;;37.30;16.88;;;;;;;;;;4971337;28;20479;-93
2022/01/01 11:16:41;;;;;;;27.60;14.75;;;;;;;;;;4973382;28;20019;-93
2022/01/01 11:19:07;;;;;;;32.67;14.63;;;;;;;;;;4974383;28;20030;-92
2022/01/01 11:21:33;;;;;;;31.20;14.82;;;;;;;;;;4969081;28;20123;-92
2022/01/01 11:23:59;;;;;;;34.42;15.02;;;;;;;;;;4952786;28;20051;-93
2022/01/01 11:26:26;;;;;;;39.53;16.58;;;;;;;;;;4953116;29;20495;-93
2022/01/01 11:28:51;;;;;;;44.20;16.55;;;;;;;;;;4953471;28;20029;-93
2022/01/01 11:31:18;;;;;;;39.65;16.73;;;;;;;;;;4953749;29;20117;-92
2022/01/01 11:33:49;;;;;;;37.63;16.63;;;;;;;;;;4953671;28;20063;-91
2022/01/01 11:36:24;;;;;;;41.80;18.55;;;;;;;;;;4955499;29;20050;-90
2022/01/01 11:38:51;;;;;;;47.55;18.85;;;;;;;;;;4960299;28;20045;-90
2022/01/01 11:41:18;;;;;;;40.28;17.02;;;;;;;;;;4955158;29;20032;-90
2022/01/01 11:43:46;;;;;;;36.15;16.52;;;;;;;;;;4958560;28;20031;-92
2022/01/01 11:46:20;;;;;;;45.60;19.25;;;;;;;;;;4956204;29;20027;-93
2022/01/01 11:48:54;;;;;;;44.17;18.75;;;;;;;;;;4956688;28;20073;-93
2022/01/01 11:51:38;;;;;;;52.08;19.40;;;;;;;;;;4958188;29;20019;-90
2022/01/01 11:54:06;;;;;;;39.72;18.05;;;;;;;;;;4958343;28;20015;-90
2022/01/01 11:56:46;;;;;;;41.42;20.30;;;;;;;;;;4957783;29;20016;-90
2022/01/01 11:59:22;;;;;;;48.65;20.23;;;;;;;;;;4957831;28;20027;-92
2022/01/01 12:01:48;;;;;;;45.33;19.95;;;;;;;;;;4958489;29;20027;-92
2022/01/01 12:04:28;;;;;;;48.90;18.75;;;;;;;;;;4962872;28;20026;-92
2022/01/01 12:06:56;;;;;;;52.05;20.77;;;;;;;;;;4958708;29;20023;-93
2022/01/01 12:09:22;;;;;;;52.47;22.27;;;;;;;;;;4963530;28;20015;-92
2022/01/01 12:11:55;;;;;;;64.03;23.20;;;;;;;;;;4980931;23;20444;-92
2022/01/01 12:14:28;;;;;;;61.90;23.50;;;;;;;;;;5001574;28;20046;-92
2022/01/01 12:16:54;;;;;;;56.70;22.42;;;;;;;;;;5013622;23;20054;-92
2022/01/01 12:19:20;;;;;;;58.58;22.90;;;;;;;;;;4984659;28;20459;-92
2022/01/01 12:21:47;;;;;;;64.15;22.92;;;;;;;;;;4979114;28;20054;-92
2022/01/01 12:24:20;;;;;;;59.88;22.35;;;;;;;;;;4995584;28;20015;-92
2022/01/01 12:26:50;;;;;;;59.85;21.50;;;;;;;;;;4995574;28;20368;-91
2022/01/01 12:29:20;;;;;;;56.38;22.30;;;;;;;;;;4978357;28;20045;-92
2022/01/01 12:31:55;;;;;;;53.95;22.05;;;;;;;;;;4977965;28;20030;-90
2022/01/01 12:34:22;;;;;;;60.33;22.48;;;;;;;;;;4978002;28;20110;-90
2022/01/01 12:36:54;;;;;;;71.68;25.65;;;;;;;;;;4982448;28;20054;-90
2022/01/01 12:39:20;;;;;;;51.25;20.88;;;;;;;;;;4995363;28;20099;-90
2022/01/01 12:41:46;;;;;;;51.13;22.33;;;;;;;;;;4977530;28;20057;-91
2022/01/01 12:44:21;;;;;;;54.83;20.83;;;;;;;;;;4994556;28;20023;-91
2022/01/01 12:46:58;;;;;;;66.38;23.75;;;;;;;;;;4995300;28;20026;-90
2022/01/01 12:49:23;;;;;;;55.15;21.33;;;;;;;;;;4977695;28;20096;-91
2022/01/01 12:51:51;;;;;;;45.63;19.88;;;;;;;;;;4978231;28;20022;-90
2022/01/01 12:54:17;;;;;;;43.00;19.13;;;;;;;;;;4978577;28;20022;-91
2022/01/01 12:56:43;;;;;;;55.50;21.20;;;;;;;;;;4978041;28;20022;-90
2022/01/01 12:59:10;;;;;;;63.22;21.83;;;;;;;;;;4996973;28;20034;-91
2022/01/01 13:01:35;;;;;;;83.28;23.77;;;;;;;;;;4985030;28;20015;-90
2022/01/01 13:04:04;;;;;;;77.90;23.30;;;;;;;;;;4979389;28;20019;-91
2022/01/01 13:06:30;;;;;;;75.38;21.83;;;;;;;;;;4978554;28;20018;-91
2022/01/01 13:09:00;;;;;;;69.70;24.33;;;;;;;;;;4978852;28;20434;-91
2022/01/01 13:11:25;;;;;;;57.38;19.38;;;;;;;;;;4978967;28;20049;-91
2022/01/01 13:13:50;;;;;;;69.03;21.30;;;;;;;;;;4982303;28;20352;-91
2022/01/01 13:16:15;;;;;;;66.80;21.58;;;;;;;;;;4978696;28;20011;-91
2022/01/01 13:18:41;;;;;;;66.55;20.52;;;;;;;;;;4995642;28;20893;-91
2022/01/01 13:21:06;;;;;;;48.35;18.65;;;;;;;;;;4983782;28;20418;-91
2022/01/01 13:23:32;;;;;;;59.50;20.13;;;;;;;;;;4978888;28;20029;-90
2022/01/01 13:26:05;;;;;;;52.97;19.88;;;;;;;;;;4985020;28;20057;-94
2022/01/01 13:31:00;;;;;;;44.70;17.20;;;;;;;;;;4994857;28;20538;-92
2022/01/01 13:33:26;;;;;;;40.17;15.77;;;;;;;;;;4995000;28;20030;-92
2022/01/01 13:35:55;;;;;;;34.67;15.98;;;;;;;;;;4996453;28;20033;-92
2022/01/01 13:38:21;;;;;;;33.20;13.90;;;;;;;;;;4994831;28;20030;-92
2022/01/01 13:40:49;;;;;;;39.75;16.45;;;;;;;;;;4996998;28;20026;-91
2022/01/01 13:43:15;;;;;;;34.72;16.80;;;;;;;;;;4996718;28;20475;-92
2022/01/01 13:45:40;;;;;;;40.08;17.02;;;;;;;;;;4995890;28;20109;-91
2022/01/01 13:48:07;;;;;;;35.22;15.88;;;;;;;;;;4997010;28;20030;-90
2022/01/01 13:50:38;;;;;;;40.17;17.73;;;;;;;;;;4994651;28;20018;-90
2022/01/01 13:53:06;;;;;;;34.90;16.67;;;;;;;;;;5003598;28;20026;-90
2022/01/01 13:55:32;;;;;;;30.80;16.80;;;;;;;;;;4995288;28;20831;-91
2022/01/01 13:57:59;;;;;;;33.70;16.55;;;;;;;;;;4995130;28;20026;-91
2022/01/01 14:00:24;;;;;;;32.63;17.10;;;;;;;;;;4999014;28;20767;-91
2022/01/01 14:02:52;;;;;;;37.15;17.73;;;;;;;;;;4994675;28;20029;-91
2022/01/01 14:05:18;;;;;;;37.95;19.33;;;;;;;;;;4994905;28;20024;-91
2022/01/01 14:07:43;;;;;;;46.10;20.33;;;;;;;;;;4995514;28;20093;-91
2022/01/01 14:10:14;;;;;;;46.95;21.48;;;;;;;;;;4993766;28;20026;-90
2022/01/01 14:12:43;;;;;;;44.08;21.67;;;;;;;;;;4993202;28;20840;-90
2022/01/01 14:15:15;;;;;;;45.80;23.00;;;;;;;;;;4993083;28;20498;-90
2022/01/01 14:17:54;;;;;;;50.28;22.52;;;;;;;;;;4993221;28;20030;-90
2022/01/01 14:20:20;;;;;;;53.13;24.50;;;;;;;;;;4992682;28;20137;-91